Time;durP1;ratioP1;P1;durP2;ratioP2;P2;SDS_P1;SDS_P2;PMS_P1;PMS_P2;Temp;Humidity;BMP_temperature;BMP_pressure;BME280_temperature;BME280_humidity;BME280_pressure;Samples;Min_cycle;Max_cycle;Signal;HPM_P1;HPM_P2
2021/12/19 00:01:07;;;;;;;11.98;6.80;;;9.00;99.90;;;;;;5042502;28;20482;-88
2021/12/19 00:04:16;;;;;;;11.35;6.35;;;9.00;99.90;;;;;;5048840;28;20084;-86
2021/12/19 00:09:29;;;;;;;10.23;6.38;;;8.90;99.90;;;;;;5048167;28;20044;-88
2021/12/19 00:11:58;;;;;;;10.10;5.93;;;8.90;99.90;;;;;;5016697;28;20076;-87
2021/12/19 00:20:51;;;;;;;11.18;6.57;;;8.80;99.90;;;;;;5074484;28;19908;-87
2021/12/19 00:26:42;;;;;;;8.52;5.10;;;8.80;99.90;;;;;;5095223;28;20035;-87
2021/12/19 00:29:07;;;;;;;8.52;5.60;;;8.70;99.90;;;;;;5076962;28;20051;-87
2021/12/19 00:31:34;;;;;;;10.02;5.80;;;8.70;99.90;;;;;;5060461;28;20024;-87
2021/12/19 00:34:00;;;;;;;11.25;5.50;;;8.60;99.90;;;;;;5077194;28;20039;-87
2021/12/19 00:36:26;;;;;;;11.23;5.60;;;8.60;99.90;;;;;;5077270;28;20478;-88
2021/12/19 00:39:19;;;;;;;8.98;5.93;;;8.60;99.90;;;;;;5061634;28;20032;-87
2021/12/19 00:41:52;;;;;;;10.90;6.38;;;8.60;99.90;;;;;;5060715;28;20035;-87
2021/12/19 00:44:22;;;;;;;11.68;6.47;;;8.60;99.90;;;;;;5066518;28;20024;-87
2021/12/19 00:46:51;;;;;;;11.10;6.75;;;8.50;99.90;;;;;;5097775;28;20032;-88
2021/12/19 00:49:19;;;;;;;11.00;6.47;;;8.50;99.90;;;;;;5097466;28;20032;-87
2021/12/19 00:51:45;;;;;;;12.60;6.63;;;8.50;99.90;;;;;;5097239;28;20043;-88
2021/12/19 00:54:12;;;;;;;11.52;6.88;;;8.50;99.90;;;;;;5097139;28;20023;-87
2021/12/19 00:56:44;;;;;;;12.55;7.25;;;8.50;99.90;;;;;;5096738;28;20042;-87
2021/12/19 01:02:57;;;;;;;13.23;7.45;;;8.50;99.90;;;;;;5094823;28;20380;-87
2021/12/19 01:06:05;;;;;;;15.07;7.78;;;8.50;99.90;;;;;;5074769;28;20101;-87
2021/12/19 01:08:31;;;;;;;13.57;7.57;;;8.50;99.90;;;;;;5077333;28;20063;-88
2021/12/19 01:10:57;;;;;;;12.65;7.35;;;8.50;99.90;;;;;;5076916;28;20153;-88
2021/12/19 01:13:32;;;;;;;13.60;7.68;;;8.50;99.90;;;;;;5093489;28;20119;-88
2021/12/19 01:19:25;;;;;;;13.80;7.50;;;8.50;99.90;;;;;;5094607;28;20372;-87
2021/12/19 01:21:51;;;;;;;13.43;7.45;;;8.50;99.90;;;;;;5076358;28;20134;-86
2021/12/19 01:24:16;;;;;;;11.70;7.20;;;8.50;99.90;;;;;;5094083;28;20469;-87
2021/12/19 01:26:42;;;;;;;15.10;7.88;;;8.50;99.90;;;;;;5076463;28;20046;-88
2021/12/19 01:32:38;;;;;;;15.30;7.63;;;8.50;99.90;;;;;;5094121;28;20526;-87
2021/12/19 01:38:56;;;;;;;17.98;9.18;;;8.50;99.90;;;;;;5094550;28;20050;-87
2021/12/19 01:44:49;;;;;;;19.58;9.38;;;8.50;99.90;;;;;;5094214;28;20043;-88
2021/12/19 01:50:39;;;;;;;21.13;10.70;;;8.50;99.90;;;;;;5094596;28;20066;-88
2021/12/19 01:56:34;;;;;;;21.42;9.60;;;8.50;99.90;;;;;;5094073;28;20093;-87
2021/12/19 01:58:59;;;;;;;20.52;10.25;;;8.50;99.90;;;;;;5075779;28;20036;-87
2021/12/19 02:01:25;;;;;;;21.77;9.90;;;8.50;99.90;;;;;;5092741;28;20024;-88
2021/12/19 02:03:57;;;;;;;26.73;10.23;;;8.40;99.90;;;;;;5076045;28;20028;-87
2021/12/19 02:06:23;;;;;;;22.52;9.40;;;8.50;99.90;;;;;;5090760;28;20468;-89
2021/12/19 02:08:50;;;;;;;20.23;9.15;;;8.40;99.90;;;;;;5056417;28;20029;-87
2021/12/19 02:11:35;;;;;;;18.92;8.82;;;8.40;99.90;;;;;;5072470;28;20074;-87
2021/12/19 02:18:16;;;;;;;25.73;10.80;;;8.50;99.90;;;;;;5073751;28;20047;-88
2021/12/19 02:24:15;;;;;;;21.67;9.80;;;8.50;99.90;;;;;;5073471;28;20147;-87
2021/12/19 02:30:08;;;;;;;20.20;9.50;;;8.50;99.90;;;;;;5073505;28;20020;-87
2021/12/19 02:50:52;;;;;;;27.20;12.43;;;8.50;99.90;;;;;;5101536;28;20047;-89
2021/12/19 02:57:19;;;;;;;24.23;10.32;;;8.50;99.90;;;;;;5100273;28;20019;-87
2021/12/19 03:00:07;;;;;;;34.70;13.00;;;8.50;99.90;;;;;;5066591;28;20033;-87
2021/12/19 03:02:33;;;;;;;33.92;12.68;;;8.50;99.90;;;;;;5040804;28;20025;-87
2021/12/19 03:05:00;;;;;;;30.45;13.20;;;8.50;99.90;;;;;;5055770;28;20040;-87
2021/12/19 03:07:27;;;;;;;32.60;13.32;;;8.50;99.90;;;;;;5049625;28;20144;-88
2021/12/19 03:18:30;;;;;;;29.33;12.40;;;8.50;99.90;;;;;;5080269;28;20043;-85
2021/12/19 03:20:56;;;;;;;29.80;12.63;;;8.50;99.90;;;;;;5075028;28;20044;-87
2021/12/19 03:23:21;;;;;;;30.60;13.13;;;8.60;99.90;;;;;;5096843;28;20032;-86
2021/12/19 03:25:47;;;;;;;30.77;12.70;;;8.60;99.90;;;;;;5076590;28;20024;-87
2021/12/19 03:28:14;;;;;;;34.42;13.00;;;8.50;99.90;;;;;;5064737;28;20033;-87
2021/12/19 03:30:42;;;;;;;28.70;11.20;;;8.50;99.90;;;;;;5075940;28;20028;-89
2021/12/19 03:36:33;;;;;;;19.50;8.10;;;8.60;99.90;;;;;;5096068;28;20070;-87
2021/12/19 03:39:02;;;;;;;18.95;8.05;;;8.60;99.90;;;;;;5046325;28;20544;-87
2021/12/19 03:41:34;;;;;;;17.92;7.75;;;8.50;99.90;;;;;;5056989;28;20043;-87
2021/12/19 03:44:04;;;;;;;17.38;7.10;;;8.60;99.90;;;;;;5058819;28;20044;-87
2021/12/19 03:46:30;;;;;;;17.92;6.72;;;8.60;99.90;;;;;;5079121;28;20083;-87
2021/12/19 03:48:56;;;;;;;17.33;6.68;;;8.60;99.90;;;;;;5085437;28;20021;-87
2021/12/19 03:51:22;;;;;;;18.08;7.13;;;8.60;99.90;;;;;;5058238;28;20029;-87
2021/12/19 03:53:48;;;;;;;15.90;7.18;;;8.60;99.90;;;;;;5074686;28;20036;-86
2021/12/19 03:56:17;;;;;;;16.40;7.07;;;8.50;99.90;;;;;;5073457;28;20021;-88
2021/12/19 04:02:05;;;;;;;15.10;6.85;;;8.60;99.90;;;;;;5079723;28;20043;-87
2021/12/19 04:04:35;;;;;;;15.05;7.10;;;8.50;99.90;;;;;;5094153;28;20047;-87
2021/12/19 04:10:27;;;;;;;19.90;8.65;;;8.50;99.90;;;;;;5095357;28;20046;-87
2021/12/19 04:16:17;;;;;;;21.15;9.00;;;8.50;99.90;;;;;;5095200;28;20471;-86
2021/12/19 04:19:04;;;;;;;20.05;9.02;;;8.60;99.90;;;;;;5077295;28;20387;-87
2021/12/19 04:21:30;;;;;;;23.85;10.63;;;8.50;99.90;;;;;;5076832;28;20016;-87
2021/12/19 04:23:55;;;;;;;20.13;8.65;;;8.50;99.90;;;;;;5057062;28;20464;-87
2021/12/19 04:26:21;;;;;;;21.08;9.40;;;8.50;99.90;;;;;;5057084;28;20036;-87
2021/12/19 04:28:46;;;;;;;21.25;9.50;;;8.50;99.90;;;;;;5073973;28;20366;-87
2021/12/19 04:31:12;;;;;;;23.92;9.52;;;8.50;99.90;;;;;;5060121;28;20496;-88
2021/12/19 04:33:40;;;;;;;22.63;10.15;;;8.60;99.90;;;;;;5093986;28;20024;-87
2021/12/19 04:36:08;;;;;;;27.25;11.30;;;8.50;99.90;;;;;;5094003;28;20024;-87
2021/12/19 05:00:30;;;;;;;32.10;13.23;;;8.50;99.90;;;;;;5037042;28;20531;-87
2021/12/19 05:04:02;;;;;;;29.98;12.93;;;8.50;99.90;;;;;;5036271;28;20045;-87
2021/12/19 05:06:21;;;;;;;36.20;13.95;;;8.50;99.90;;;;;;4999913;28;20033;-87
2021/12/19 05:14:20;;;;;;;26.92;12.82;;;8.50;99.90;;;;;;5062534;28;20043;-87
2021/12/19 05:16:47;;;;;;;32.28;13.10;;;8.50;99.90;;;;;;5044061;28;20032;-86
2021/12/19 05:19:28;;;;;;;25.42;11.25;;;8.50;99.90;;;;;;5051018;28;20048;-86
2021/12/19 05:21:59;;;;;;;26.42;11.80;;;8.60;99.90;;;;;;5061330;28;20028;-87
2021/12/19 05:24:48;;;;;;;24.80;10.82;;;8.50;99.90;;;;;;5077312;28;20039;-86
2021/12/19 05:27:13;;;;;;;24.33;11.23;;;8.60;99.90;;;;;;5084805;28;20036;-86
2021/12/19 05:29:40;;;;;;;29.55;11.15;;;8.50;99.90;;;;;;5056367;28;20020;-88
2021/12/19 05:32:08;;;;;;;23.23;11.15;;;8.50;99.90;;;;;;5047546;28;20073;-87
2021/12/19 05:34:34;;;;;;;21.13;9.88;;;8.40;99.90;;;;;;5070855;28;20024;-87
2021/12/19 05:45:18;;;;;;;19.65;8.40;;;8.50;99.90;;;;;;5064815;28;20526;-89
2021/12/19 05:47:48;;;;;;;19.77;8.73;;;8.50;99.90;;;;;;5055698;28;20027;-87
2021/12/19 05:50:19;;;;;;;20.03;7.77;;;8.50;99.90;;;;;;5055739;28;20032;-87
2021/12/19 05:52:48;;;;;;;16.40;7.35;;;8.50;99.90;;;;;;5056040;28;20267;-88
2021/12/19 05:55:15;;;;;;;20.08;8.40;;;8.50;99.90;;;;;;5073873;28;20071;-88
2021/12/19 05:57:41;;;;;;;16.05;7.57;;;8.60;99.90;;;;;;5055904;28;20031;-88
2021/12/19 06:00:12;;;;;;;20.98;8.40;;;8.50;99.90;;;;;;5056879;28;20376;-87
2021/12/19 06:05:46;;;;;;;16.60;7.60;;;8.60;99.90;;;;;;5093621;28;20388;-87
2021/12/19 06:08:11;;;;;;;17.17;7.22;;;8.60;99.90;;;;;;5106509;28;20077;-87
2021/12/19 06:10:37;;;;;;;16.40;6.88;;;8.60;99.90;;;;;;5075775;28;20040;-87
2021/12/19 06:13:03;;;;;;;12.90;6.50;;;8.60;99.90;;;;;;5075684;28;20024;-88
2021/12/19 06:15:28;;;;;;;15.57;6.80;;;8.70;99.90;;;;;;5093257;28;20089;-88
2021/12/19 06:17:54;;;;;;;14.68;6.07;;;8.60;99.90;;;;;;5066692;28;20024;-87
2021/12/19 06:20:20;;;;;;;13.18;5.97;;;8.70;99.90;;;;;;5075827;28;20029;-87
2021/12/19 06:22:46;;;;;;;16.48;6.00;;;8.70;99.90;;;;;;5076793;28;20024;-87
2021/12/19 06:25:12;;;;;;;13.68;5.80;;;8.70;99.90;;;;;;5084101;28;20016;-89
2021/12/19 06:27:38;;;;;;;13.80;5.53;;;8.70;99.90;;;;;;5120774;28;20031;-86
2021/12/19 06:30:05;;;;;;;11.77;5.05;;;8.70;99.90;;;;;;5092693;28;20008;-93
2021/12/19 06:32:31;;;;;;;11.07;4.93;;;8.70;99.90;;;;;;5110010;28;20036;-86
2021/12/19 06:34:59;;;;;;;12.43;5.28;;;8.70;99.90;;;;;;5129226;28;20000;-88
2021/12/19 06:37:25;;;;;;;12.43;5.15;;;8.70;99.90;;;;;;5120430;28;20031;-88
2021/12/19 06:39:51;;;;;;;10.57;4.57;;;8.70;99.90;;;;;;5108583;28;20028;-87
2021/12/19 06:42:16;;;;;;;11.38;4.93;;;8.80;99.90;;;;;;5104274;28;20027;-87
2021/12/19 06:44:42;;;;;;;13.02;5.28;;;8.70;99.90;;;;;;5081500;28;20028;-87
2021/12/19 06:47:12;;;;;;;11.15;4.78;;;8.80;99.90;;;;;;5075188;28;20533;-88
2021/12/19 06:49:38;;;;;;;7.63;3.30;;;8.80;99.90;;;;;;5079413;28;20040;-87
2021/12/19 06:52:04;;;;;;;7.45;2.85;;;8.80;99.90;;;;;;5093537;28;20035;-87
2021/12/19 06:54:30;;;;;;;6.53;2.38;;;8.80;99.90;;;;;;5079312;28;20055;-87
2021/12/19 06:56:55;;;;;;;6.53;2.05;;;8.80;99.90;;;;;;5079139;28;20029;-87
2021/12/19 06:59:21;;;;;;;5.35;1.95;;;8.80;99.90;;;;;;5095110;28;20035;-87
2021/12/19 07:01:47;;;;;;;5.28;1.95;;;8.80;99.90;;;;;;5078770;28;20032;-87
2021/12/19 07:04:12;;;;;;;6.50;2.10;;;8.70;99.90;;;;;;5078393;28;20111;-87
2021/12/19 07:06:38;;;;;;;4.97;2.00;;;8.70;99.90;;;;;;5078103;28;20048;-86
2021/12/19 07:09:04;;;;;;;5.03;2.10;;;8.70;99.90;;;;;;5078962;28;20028;-86
2021/12/19 07:11:29;;;;;;;5.10;1.85;;;8.70;99.90;;;;;;5078384;28;20031;-86
2021/12/19 07:13:55;;;;;;;4.13;1.85;;;8.70;99.90;;;;;;5095582;28;20032;-86
2021/12/19 07:16:21;;;;;;;5.95;2.20;;;8.70;99.90;;;;;;5075235;28;20036;-86
2021/12/19 07:18:47;;;;;;;6.10;1.80;;;8.70;99.90;;;;;;5058151;28;20028;-87
2021/12/19 07:21:14;;;;;;;6.40;1.55;;;8.70;99.90;;;;;;5058542;28;20029;-87
2021/12/19 07:23:39;;;;;;;3.03;1.15;;;8.70;99.90;;;;;;5075324;28;20029;-87
2021/12/19 07:26:05;;;;;;;4.18;1.40;;;8.70;99.90;;;;;;5075432;28;20051;-86
2021/12/19 07:28:31;;;;;;;3.83;1.48;;;8.70;99.90;;;;;;5083316;28;21949;-87
2021/12/19 07:30:57;;;;;;;3.58;1.58;;;8.70;99.90;;;;;;5099026;28;20016;-86
2021/12/19 07:33:23;;;;;;;3.90;1.10;;;8.60;99.90;;;;;;5103978;28;20028;-86
2021/12/19 07:35:50;;;;;;;2.88;0.93;;;8.60;99.90;;;;;;5079372;28;20028;-86
2021/12/19 07:38:24;;;;;;;1.55;0.60;;;8.60;99.90;;;;;;5077157;28;20495;-86
2021/12/19 07:40:50;;;;;;;1.40;0.60;;;8.60;99.90;;;;;;5076242;28;20074;-86
2021/12/19 07:43:17;;;;;;;1.58;0.68;;;8.50;99.90;;;;;;5094113;28;20092;-87
2021/12/19 07:45:43;;;;;;;1.65;0.90;;;8.50;99.90;;;;;;5083321;28;20020;-87
2021/12/19 07:48:09;;;;;;;2.00;0.82;;;8.50;99.90;;;;;;5082913;28;20047;-87
2021/12/19 07:50:35;;;;;;;2.38;0.93;;;8.50;99.90;;;;;;5082869;28;20469;-87
2021/12/19 07:53:01;;;;;;;3.97;1.20;;;8.50;99.90;;;;;;5079390;28;20044;-87
2021/12/19 07:55:27;;;;;;;2.40;1.02;;;8.50;99.90;;;;;;5079773;28;20024;-87
2021/12/19 07:57:53;;;;;;;2.90;1.20;;;8.50;99.90;;;;;;5082224;28;20107;-88
2021/12/19 08:04:29;;;;;;;5.50;1.58;;;8.50;99.90;;;;;;5100331;28;20025;-88
2021/12/19 08:06:55;;;;;;;4.05;1.27;;;8.50;99.90;;;;;;5101246;28;20047;-86
2021/12/19 08:09:25;;;;;;;2.90;1.10;;;8.50;99.90;;;;;;5048627;28;20040;-88
2021/12/19 08:11:51;;;;;;;4.65;1.50;;;8.50;99.90;;;;;;5041452;28;20020;-86
2021/12/19 08:14:17;;;;;;;3.30;1.20;;;8.50;99.90;;;;;;5041480;28;20032;-87
2021/12/19 08:16:45;;;;;;;2.70;1.25;;;8.50;99.90;;;;;;5077631;28;20349;-87
2021/12/19 08:19:12;;;;;;;4.82;1.70;;;8.50;99.90;;;;;;5111551;28;20029;-87
2021/12/19 08:21:38;;;;;;;3.38;1.25;;;8.50;99.90;;;;;;5077292;28;20026;-87
2021/12/19 08:24:13;;;;;;;3.65;1.48;;;8.50;99.90;;;;;;5045935;28;20032;-88
2021/12/19 08:30:20;;;;;;;2.83;1.30;;;8.50;99.90;;;;;;5075156;28;20023;-87
2021/12/19 08:36:17;;;;;;;3.97;1.38;;;8.50;99.90;;;;;;5075072;28;20031;-87
2021/12/19 08:38:43;;;;;;;3.85;1.73;;;8.50;99.90;;;;;;5040418;28;20025;-87
2021/12/19 08:41:09;;;;;;;3.47;1.30;;;8.40;99.90;;;;;;5040631;28;20082;-87
2021/12/19 08:43:34;;;;;;;3.72;1.23;;;8.50;99.90;;;;;;5050810;28;20028;-87
2021/12/19 08:46:01;;;;;;;2.28;1.10;;;8.40;99.90;;;;;;5076926;28;20036;-87
2021/12/19 08:48:27;;;;;;;2.22;0.90;;;8.40;99.90;;;;;;5097735;28;20039;-88
2021/12/19 08:50:52;;;;;;;2.38;1.30;;;8.40;99.90;;;;;;5056637;28;20036;-87
2021/12/19 08:53:18;;;;;;;3.78;1.02;;;8.40;99.90;;;;;;5069767;28;20504;-86
2021/12/19 08:55:45;;;;;;;2.08;1.10;;;8.40;99.90;;;;;;5039808;28;20025;-86
2021/12/19 08:58:11;;;;;;;3.60;1.13;;;8.40;99.90;;;;;;5059935;28;20020;-86
2021/12/19 09:00:37;;;;;;;2.88;1.23;;;8.40;99.90;;;;;;5076240;28;20025;-87
2021/12/19 09:03:05;;;;;;;2.15;1.30;;;8.40;99.90;;;;;;5063307;28;20302;-87
2021/12/19 09:05:31;;;;;;;2.33;1.00;;;8.50;99.90;;;;;;5076330;28;20465;-86
2021/12/19 09:07:57;;;;;;;2.38;1.05;;;8.40;99.90;;;;;;5073608;28;20052;-88
2021/12/19 09:10:23;;;;;;;3.00;1.20;;;8.50;99.90;;;;;;5095288;28;20478;-87
2021/12/19 09:12:49;;;;;;;2.65;1.00;;;8.50;99.90;;;;;;5094244;28;20500;-87
2021/12/19 09:15:15;;;;;;;2.45;1.20;;;8.50;99.90;;;;;;5092901;28;20039;-87
2021/12/19 09:21:03;;;;;;;2.58;0.90;;;8.50;99.90;;;;;;5093102;28;20027;-91
2021/12/19 09:23:29;;;;;;;1.90;0.93;;;8.50;99.90;;;;;;5087549;28;20012;-87
2021/12/19 09:26:34;;;;;;;1.15;0.80;;;8.50;99.90;;;;;;5072028;28;20124;-87
2021/12/19 09:29:00;;;;;;;1.13;0.80;;;8.50;99.90;;;;;;5087080;28;20064;-87
2021/12/19 09:31:26;;;;;;;1.65;0.90;;;8.50;99.90;;;;;;5060968;28;20048;-86
2021/12/19 09:33:51;;;;;;;2.90;1.50;;;8.60;99.90;;;;;;5072619;28;20036;-86
2021/12/19 09:36:17;;;;;;;2.53;1.30;;;8.60;99.90;;;;;;5056056;28;20032;-87
2021/12/19 09:42:09;;;;;;;4.80;1.67;;;8.60;99.90;;;;;;5080907;28;20051;-88
2021/12/19 09:44:40;;;;;;;3.67;1.58;;;8.60;99.90;;;;;;5049085;28;20032;-87
2021/12/19 09:47:07;;;;;;;3.25;1.52;;;8.60;99.90;;;;;;5083246;28;20032;-85
2021/12/19 09:49:35;;;;;;;4.13;1.65;;;8.60;99.90;;;;;;5082352;28;20054;-86
2021/12/19 09:52:08;;;;;;;3.90;1.70;;;8.60;99.90;;;;;;5078872;28;20636;-85
2021/12/19 09:54:36;;;;;;;6.03;1.90;;;8.70;99.90;;;;;;5120952;27;20017;-84
2021/12/19 09:57:02;;;;;;;3.88;1.83;;;8.70;99.90;;;;;;5077759;28;20078;-84
2021/12/19 09:59:28;;;;;;;5.20;2.10;;;8.70;99.90;;;;;;5090865;28;20033;-87
2021/12/19 10:01:54;;;;;;;4.32;2.05;;;8.70;99.90;;;;;;5088783;28;20380;-84
2021/12/19 10:04:34;;;;;;;4.88;2.25;;;8.70;99.90;;;;;;5097827;28;20464;-85
2021/12/19 10:07:18;;;;;;;4.07;1.88;;;8.70;99.90;;;;;;5098415;28;20032;-85
2021/12/19 10:10:00;;;;;;;3.47;1.80;;;8.70;99.90;;;;;;5118024;28;20012;-86
2021/12/19 10:12:48;;;;;;;3.45;1.88;;;8.70;99.90;;;;;;5091946;28;20008;-91
2021/12/19 10:15:27;;;;;;;5.25;2.78;;;8.70;99.90;;;;;;5095724;28;20029;-86
2021/12/19 10:18:12;;;;;;;6.85;2.78;;;8.70;99.90;;;;;;5088732;28;20015;-86
2021/12/19 10:20:49;;;;;;;7.13;2.63;;;8.70;99.90;;;;;;5123682;28;20018;-94
2021/12/19 10:23:20;;;;;;;9.50;3.83;;;8.70;99.90;;;;;;5099946;28;20084;-87
2021/12/19 10:25:58;;;;;;;7.78;3.40;;;8.70;99.90;;;;;;5101446;28;20024;-88
2021/12/19 10:28:24;;;;;;;9.77;3.72;;;8.70;99.90;;;;;;5092351;28;20028;-89
2021/12/19 10:30:50;;;;;;;10.93;4.78;;;8.70;99.90;;;;;;5064272;28;20033;-88
2021/12/19 10:33:22;;;;;;;10.85;4.07;;;8.70;99.90;;;;;;5073995;28;20029;-89
2021/12/19 10:35:57;;;;;;;9.45;4.13;;;8.70;99.90;;;;;;5082395;28;20020;-84
2021/12/19 10:38:31;;;;;;;11.05;4.00;;;8.70;99.90;;;;;;5058278;28;20306;-93
2021/12/19 10:41:02;;;;;;;14.20;5.35;;;8.80;99.90;;;;;;5075052;28;20111;-89
2021/12/19 10:43:31;;;;;;;10.07;4.18;;;8.80;99.90;;;;;;5097553;28;20016;-92
2021/12/19 10:46:03;;;;;;;8.80;4.47;;;8.70;99.90;;;;;;5098145;28;20110;-88
2021/12/19 10:48:30;;;;;;;15.60;4.45;;;8.70;99.90;;;;;;5084176;28;20083;-91
2021/12/19 10:51:15;;;;;;;9.45;4.68;;;8.70;99.90;;;;;;5084085;28;20027;-93
2021/12/19 10:53:52;;;;;;;9.20;4.25;;;8.70;99.90;;;;;;5104194;28;20050;-89
2021/12/19 10:56:19;;;;;;;10.80;4.20;;;8.70;99.90;;;;;;5097492;28;20019;-88
2021/12/19 10:59:00;;;;;;;10.93;4.03;;;8.70;99.90;;;;;;5101175;28;20099;-89
2021/12/19 11:01:33;;;;;;;9.98;3.63;;;8.80;99.90;;;;;;5081183;28;20027;-88
2021/12/19 11:04:02;;;;;;;11.63;3.10;;;8.80;99.90;;;;;;5076629;28;20441;-88
2021/12/19 11:06:35;;;;;;;9.57;3.25;;;8.70;99.90;;;;;;5079137;28;20032;-90
2021/12/19 11:09:09;;;;;;;10.27;3.38;;;8.70;99.90;;;;;;5073066;28;20052;-89
2021/12/19 11:11:48;;;;;;;7.85;3.35;;;8.80;99.90;;;;;;5073849;28;20020;-93
2021/12/19 11:14:38;;;;;;;7.10;3.40;;;8.70;99.90;;;;;;5093050;28;20465;-87
2021/12/19 11:17:07;;;;;;;11.30;3.55;;;8.70;99.90;;;;;;5072758;28;20163;-89
2021/12/19 11:19:33;;;;;;;13.95;3.90;;;8.80;99.90;;;;;;5072807;28;20026;-89
2021/12/19 11:22:00;;;;;;;10.25;4.40;;;8.80;99.90;;;;;;5062912;28;20020;-89
2021/12/19 11:24:26;;;;;;;8.35;4.00;;;8.80;99.90;;;;;;5050275;28;20077;-89
2021/12/19 11:27:00;;;;;;;15.50;4.55;;;8.80;99.90;;;;;;5089660;28;20040;-88
2021/12/19 11:29:27;;;;;;;8.85;4.32;;;8.80;99.90;;;;;;5093927;28;20024;-89
2021/12/19 11:32:00;;;;;;;14.52;4.57;;;8.70;99.90;;;;;;5089707;28;20025;-88
2021/12/19 11:34:45;;;;;;;12.30;5.28;;;8.80;99.90;;;;;;5085787;28;20054;-88
2021/12/19 11:37:14;;;;;;;11.75;4.88;;;8.80;99.90;;;;;;5071544;28;20039;-88
2021/12/19 11:39:43;;;;;;;9.95;4.68;;;8.80;99.90;;;;;;5111759;28;20019;-90
2021/12/19 11:42:10;;;;;;;12.00;5.03;;;8.80;99.90;;;;;;5079347;28;20040;-88
2021/12/19 11:44:49;;;;;;;14.05;4.88;;;8.80;99.90;;;;;;5091645;28;20025;-88
2021/12/19 11:47:43;;;;;;;12.45;4.18;;;8.80;99.90;;;;;;5064734;28;20043;-87
2021/12/19 11:50:15;;;;;;;10.27;4.15;;;8.80;99.90;;;;;;5067125;28;20029;-87
2021/12/19 11:52:41;;;;;;;11.02;4.05;;;8.80;99.90;;;;;;5102960;28;20031;-88
2021/12/19 11:55:25;;;;;;;8.18;3.60;;;8.80;99.90;;;;;;5070227;28;20377;-89
2021/12/19 11:58:08;;;;;;;11.77;3.92;;;8.80;99.90;;;;;;5083581;28;20039;-88
2021/12/19 12:00:39;;;;;;;13.38;4.65;;;8.80;99.90;;;;;;5070592;28;20066;-86
2021/12/19 12:03:14;;;;;;;16.60;4.18;;;8.80;99.90;;;;;;5082189;28;20024;-86
2021/12/19 12:05:44;;;;;;;13.00;3.80;;;8.80;99.90;;;;;;5081987;28;20100;-86
2021/12/19 12:08:17;;;;;;;15.93;5.18;;;8.80;99.90;;;;;;5100023;28;20040;-89
2021/12/19 12:10:56;;;;;;;13.40;4.93;;;8.80;99.90;;;;;;5082857;28;20020;-88
2021/12/19 12:13:33;;;;;;;16.45;5.38;;;8.80;99.90;;;;;;5080075;28;20387;-87
2021/12/19 12:16:42;;;;;;;16.42;5.60;;;8.80;99.90;;;;;;5078105;28;20031;-86
2021/12/19 12:19:08;;;;;;;12.27;4.10;;;8.80;99.90;;;;;;5078751;28;20032;-89
2021/12/19 12:21:47;;;;;;;11.32;4.18;;;8.80;99.90;;;;;;5097257;28;20356;-89
2021/12/19 12:24:12;;;;;;;9.18;3.80;;;8.80;99.90;;;;;;5081922;28;20044;-90
2021/12/19 12:26:54;;;;;;;13.57;5.03;;;8.80;99.90;;;;;;5080717;28;20055;-88
2021/12/19 12:29:21;;;;;;;12.07;3.42;;;8.80;99.90;;;;;;5096173;28;20025;-89
2021/12/19 12:31:47;;;;;;;8.43;3.15;;;8.80;99.90;;;;;;5060502;28;20114;-89
2021/12/19 12:34:16;;;;;;;9.77;3.80;;;8.80;99.90;;;;;;5059485;28;20032;-89
2021/12/19 12:36:43;;;;;;;7.93;3.53;;;8.90;99.90;;;;;;5078905;28;20048;-90
2021/12/19 12:39:22;;;;;;;8.43;3.70;;;8.90;99.90;;;;;;5097291;28;20036;-89
2021/12/19 12:42:03;;;;;;;11.25;3.63;;;8.90;99.90;;;;;;5085676;28;20096;-90
2021/12/19 12:44:32;;;;;;;10.45;3.85;;;8.90;99.90;;;;;;5082400;28;20020;-89
2021/12/19 12:46:59;;;;;;;11.35;4.25;;;8.90;99.90;;;;;;5080711;28;20055;-89
2021/12/19 12:49:34;;;;;;;10.18;3.88;;;8.90;99.90;;;;;;5065199;28;20032;-90
2021/12/19 12:52:04;;;;;;;10.07;3.60;;;8.90;99.90;;;;;;5082771;28;20106;-88
2021/12/19 12:54:37;;;;;;;7.40;3.10;;;8.90;99.90;;;;;;5080184;28;20054;-88
2021/12/19 12:57:09;;;;;;;13.40;3.60;;;8.90;99.90;;;;;;5079534;28;20307;-88
2021/12/19 12:59:42;;;;;;;6.68;3.30;;;8.90;99.90;;;;;;5081930;28;20028;-89
2021/12/19 13:02:14;;;;;;;7.18;3.30;;;8.90;99.90;;;;;;5079639;28;20017;-89
2021/12/19 13:04:42;;;;;;;11.07;3.50;;;9.00;99.90;;;;;;5076587;28;20029;-88
2021/12/19 13:07:09;;;;;;;13.15;3.35;;;8.90;99.90;;;;;;5077153;28;20043;-87
2021/12/19 13:09:45;;;;;;;9.25;3.55;;;9.00;99.90;;;;;;5094684;28;20077;-88
2021/12/19 13:12:16;;;;;;;7.97;2.92;;;8.90;99.90;;;;;;5077208;28;20028;-91
2021/12/19 13:14:48;;;;;;;7.40;3.17;;;8.90;99.90;;;;;;5084964;28;20028;-89
2021/12/19 13:17:20;;;;;;;8.65;3.45;;;8.90;99.90;;;;;;5099532;28;20035;-89
2021/12/19 13:19:50;;;;;;;10.70;3.50;;;8.90;99.90;;;;;;5077195;28;20060;-89
2021/12/19 13:22:22;;;;;;;9.98;3.45;;;8.90;99.90;;;;;;5078708;28;20016;-89
2021/12/19 13:24:50;;;;;;;6.40;3.20;;;8.90;99.90;;;;;;5095031;28;20028;-89
2021/12/19 13:27:28;;;;;;;9.93;3.40;;;8.90;99.90;;;;;;5077034;28;20035;-89
2021/12/19 13:30:02;;;;;;;9.38;3.03;;;8.90;99.90;;;;;;5077002;28;20043;-94
2021/12/19 13:32:29;;;;;;;7.45;3.63;;;8.90;99.90;;;;;;5076332;28;20032;-87
2021/12/19 13:34:57;;;;;;;11.45;3.70;;;8.90;99.90;;;;;;5093735;28;20448;-86
2021/12/19 13:37:23;;;;;;;8.30;3.30;;;8.90;99.90;;;;;;5079831;28;20140;-89
2021/12/19 13:40:10;;;;;;;15.25;5.70;;;8.80;99.90;;;;;;5086987;28;20025;-86
2021/12/19 13:42:45;;;;;;;10.18;4.00;;;8.90;99.90;;;;;;5071249;28;20024;-88
2021/12/19 13:45:30;;;;;;;6.60;2.70;;;8.90;99.90;;;;;;5090892;28;20028;-88
2021/12/19 13:48:02;;;;;;;7.93;3.13;;;8.90;99.90;;;;;;5076682;28;20096;-89
2021/12/19 13:50:32;;;;;;;8.35;2.45;;;8.90;99.90;;;;;;5075008;28;20020;-88
2021/12/19 13:52:58;;;;;;;6.60;2.70;;;8.90;99.90;;;;;;5111088;28;20027;-96
2021/12/19 13:55:23;;;;;;;6.93;2.80;;;8.90;99.90;;;;;;5099766;28;20088;-88
2021/12/19 13:58:06;;;;;;;6.85;2.78;;;8.90;99.90;;;;;;5100179;28;20018;-86
2021/12/19 14:00:39;;;;;;;7.68;2.92;;;8.90;99.90;;;;;;5100394;28;20032;-89
2021/12/19 14:03:05;;;;;;;5.45;2.60;;;8.90;99.90;;;;;;5116877;28;20012;-85
2021/12/19 14:05:44;;;;;;;6.47;2.72;;;8.90;99.90;;;;;;5084511;28;20032;-86
2021/12/19 14:08:28;;;;;;;7.05;2.55;;;8.90;99.90;;;;;;5077859;28;20040;-85
2021/12/19 14:11:06;;;;;;;7.28;2.50;;;8.90;99.90;;;;;;5076903;28;20024;-86
2021/12/19 14:13:35;;;;;;;6.13;2.67;;;8.90;99.90;;;;;;5056112;28;20031;-85
2021/12/19 14:16:03;;;;;;;8.85;2.97;;;8.90;99.90;;;;;;5055161;28;20029;-86
2021/12/19 14:18:37;;;;;;;7.32;2.80;;;9.00;99.90;;;;;;5071064;28;20492;-86
2021/12/19 14:21:04;;;;;;;7.22;2.90;;;8.90;99.90;;;;;;5071317;28;20055;-86
2021/12/19 14:23:37;;;;;;;6.03;2.85;;;8.90;99.90;;;;;;5037322;28;20055;-88
2021/12/19 14:26:04;;;;;;;6.90;2.58;;;8.90;99.90;;;;;;5074823;28;20020;-87
2021/12/19 14:28:33;;;;;;;6.75;2.70;;;8.90;99.90;;;;;;5077823;28;20021;-87
2021/12/19 14:31:05;;;;;;;10.63;3.03;;;8.90;99.90;;;;;;5082075;28;20116;-89
2021/12/19 14:33:33;;;;;;;8.75;2.78;;;8.90;99.90;;;;;;5088590;28;20546;-87
2021/12/19 14:36:01;;;;;;;6.95;2.17;;;8.90;99.90;;;;;;5087300;28;20449;-86
2021/12/19 14:38:26;;;;;;;6.55;2.50;;;8.90;99.90;;;;;;5077796;28;20047;-87
2021/12/19 14:40:59;;;;;;;8.43;2.63;;;8.90;99.90;;;;;;5092460;28;20032;-88
2021/12/19 14:43:29;;;;;;;5.45;2.80;;;8.90;99.90;;;;;;5096911;28;20376;-91
2021/12/19 14:45:56;;;;;;;7.63;2.97;;;8.90;99.90;;;;;;5076304;28;20025;-86
2021/12/19 14:48:41;;;;;;;6.60;3.08;;;8.90;99.90;;;;;;5058388;28;20025;-86
2021/12/19 14:51:10;;;;;;;8.38;3.17;;;8.90;99.90;;;;;;5076188;28;20024;-86
2021/12/19 14:53:38;;;;;;;7.05;2.97;;;8.90;99.90;;;;;;5087011;28;20118;-86
2021/12/19 14:56:09;;;;;;;6.63;2.90;;;8.90;99.90;;;;;;5093841;28;20040;-87
2021/12/19 14:58:42;;;;;;;6.75;3.10;;;8.90;99.90;;;;;;5095021;28;20012;-86
2021/12/19 15:01:10;;;;;;;9.32;3.25;;;8.90;99.90;;;;;;5096274;28;20085;-85
2021/12/19 15:03:38;;;;;;;7.22;3.25;;;8.90;99.90;;;;;;5094685;28;20031;-86
2021/12/19 15:06:11;;;;;;;10.55;3.20;;;9.00;99.90;;;;;;5096294;28;20097;-85
2021/12/19 15:08:38;;;;;;;7.25;3.20;;;8.90;99.90;;;;;;5069669;28;20055;-85
2021/12/19 15:11:03;;;;;;;8.23;3.03;;;8.90;99.90;;;;;;5077666;28;20143;-86
2021/12/19 15:13:33;;;;;;;7.10;2.85;;;9.00;99.90;;;;;;5096228;28;20476;-86
2021/12/19 15:15:59;;;;;;;8.65;3.08;;;9.00;99.90;;;;;;5078450;28;20036;-86
2021/12/19 15:18:25;;;;;;;9.18;3.35;;;8.90;99.90;;;;;;5077910;28;20020;-86
2021/12/19 15:20:51;;;;;;;6.85;3.15;;;9.00;99.90;;;;;;5063408;28;20482;-85
2021/12/19 15:23:19;;;;;;;10.05;3.35;;;9.00;99.90;;;;;;5095902;28;20020;-86
2021/12/19 15:25:47;;;;;;;6.35;3.40;;;8.90;99.90;;;;;;5078023;28;20024;-86
2021/12/19 15:28:14;;;;;;;8.73;3.50;;;9.00;99.90;;;;;;5077479;28;20032;-87
2021/12/19 15:30:40;;;;;;;11.98;5.85;;;9.00;99.90;;;;;;5095867;28;20020;-86
2021/12/19 15:33:06;;;;;;;9.75;5.75;;;9.00;99.90;;;;;;5060601;28;20020;-86
2021/12/19 15:35:32;;;;;;;7.22;3.60;;;9.00;99.90;;;;;;5095125;28;20479;-86